Dunnington, United Kingdom
Current Conditions -  °F | °C
As of 12:50 AM on Wednesday 22 Oct 2014 (Local Time) from EGXV Reporting Station
Clear Clear  
Wind Chill: 36°   Ceiling: Unl
Heat Index: 43°   Visibility: 6mi
Dew Point: 34°   Wind: 13mph
Humidity: 70%   Direction: 270°W
Pressure: 30.03"   Gusts: NA
Location:  53.95°N, 0.25°W
Report Text: EGXV 212350Z AUTO 27011KT 9999 NCD 06/01 Q1017
Loading
Personal Weather Stations






























Interactive Weather Map
Tropical Storm Tracking
New forecast layout! Learn more

10-Day Weather Forecast

Advertisements
Track Severe Weather on mobile